sensor_id;sensor_type;location;lat;lon;timestamp;temperature;humidity
23609;DHT22;11982;50.810;4.442;2023-02-11T00:01:31;6.00;99.90
23609;DHT22;11982;50.810;4.442;2023-02-11T00:03:58;5.90;99.90
23609;DHT22;11982;50.810;4.442;2023-02-11T00:06:24;5.90;99.90
23609;DHT22;11982;50.810;4.442;2023-02-11T00:08:51;5.90;99.90
23609;DHT22;11982;50.810;4.442;2023-02-11T00:11:18;5.90;99.90
23609;DHT22;11982;50.810;4.442;2023-02-11T00:13:45;5.90;99.90
23609;DHT22;11982;50.810;4.442;2023-02-11T00:16:16;5.90;99.90
23609;DHT22;11982;50.810;4.442;2023-02-11T00:18:43;5.80;99.90
23609;DHT22;11982;50.810;4.442;2023-02-11T00:21:17;5.80;99.90
23609;DHT22;11982;50.810;4.442;2023-02-11T00:23:43;5.80;99.90
23609;DHT22;11982;50.810;4.442;2023-02-11T00:26:18;5.70;99.90
23609;DHT22;11982;50.810;4.442;2023-02-11T00:28:45;5.70;99.90
23609;DHT22;11982;50.810;4.442;2023-02-11T00:31:12;5.70;99.90
23609;DHT22;11982;50.810;4.442;2023-02-11T00:33:37;5.60;99.90
23609;DHT22;11982;50.810;4.442;2023-02-11T00:36:09;5.60;99.90
23609;DHT22;11982;50.810;4.442;2023-02-11T00:38:36;5.60;99.90
23609;DHT22;11982;50.810;4.442;2023-02-11T00:41:01;5.60;99.90
23609;DHT22;11982;50.810;4.442;2023-02-11T00:43:27;5.50;99.90
23609;DHT22;11982;50.810;4.442;2023-02-11T00:45:53;5.60;99.90
23609;DHT22;11982;50.810;4.442;2023-02-11T00:48:18;5.50;99.90
23609;DHT22;11982;50.810;4.442;2023-02-11T00:50:44;5.50;99.90
23609;DHT22;11982;50.810;4.442;2023-02-11T00:53:10;5.50;99.90
23609;DHT22;11982;50.810;4.442;2023-02-11T00:55:35;5.50;99.90
23609;DHT22;11982;50.810;4.442;2023-02-11T00:58:01;5.50;99.90
23609;DHT22;11982;50.810;4.442;2023-02-11T01:00:27;5.50;99.90
23609;DHT22;11982;50.810;4.442;2023-02-11T01:02:53;5.40;99.90
23609;DHT22;11982;50.810;4.442;2023-02-11T01:05:19;5.40;99.90
23609;DHT22;11982;50.810;4.442;2023-02-11T01:07:45;5.40;99.90
23609;DHT22;11982;50.810;4.442;2023-02-11T01:10:11;5.40;99.90
23609;DHT22;11982;50.810;4.442;2023-02-11T01:12:37;5.40;99.90
23609;DHT22;11982;50.810;4.442;2023-02-11T01:15:06;5.30;99.90
23609;DHT22;11982;50.810;4.442;2023-02-11T01:17:33;5.40;99.90
23609;DHT22;11982;50.810;4.442;2023-02-11T01:20:02;5.40;99.90
23609;DHT22;11982;50.810;4.442;2023-02-11T01:22:28;5.50;99.90
23609;DHT22;11982;50.810;4.442;2023-02-11T01:24:54;5.50;99.90
23609;DHT22;11982;50.810;4.442;2023-02-11T01:27:19;5.50;99.90
23609;DHT22;11982;50.810;4.442;2023-02-11T01:29:45;5.60;99.90
23609;DHT22;11982;50.810;4.442;2023-02-11T01:32:11;5.60;99.90
23609;DHT22;11982;50.810;4.442;2023-02-11T01:34:36;5.70;99.90
23609;DHT22;11982;50.810;4.442;2023-02-11T01:37:02;5.70;99.90
23609;DHT22;11982;50.810;4.442;2023-02-11T01:39:28;5.80;99.90
23609;DHT22;11982;50.810;4.442;2023-02-11T01:41:57;5.80;99.90
23609;DHT22;11982;50.810;4.442;2023-02-11T01:46:51;5.80;99.90
23609;DHT22;11982;50.810;4.442;2023-02-11T01:49:22;5.90;99.90
23609;DHT22;11982;50.810;4.442;2023-02-11T01:54:27;5.90;99.90
23609;DHT22;11982;50.810;4.442;2023-02-11T01:57:15;5.90;99.90
23609;DHT22;11982;50.810;4.442;2023-02-11T01:59:56;5.90;99.90
23609;DHT22;11982;50.810;4.442;2023-02-11T02:02:34;5.90;99.90
23609;DHT22;11982;50.810;4.442;2023-02-11T02:05:07;6.00;99.90
23609;DHT22;11982;50.810;4.442;2023-02-11T02:07:40;6.00;99.90
23609;DHT22;11982;50.810;4.442;2023-02-11T02:10:13;5.90;99.90
23609;DHT22;11982;50.810;4.442;2023-02-11T02:12:39;6.00;99.90
23609;DHT22;11982;50.810;4.442;2023-02-11T02:15:32;6.00;99.90
23609;DHT22;11982;50.810;4.442;2023-02-11T02:18:14;6.00;99.90
23609;DHT22;11982;50.810;4.442;2023-02-11T02:23:31;6.00;99.90
23609;DHT22;11982;50.810;4.442;2023-02-11T02:26:32;6.10;99.90
23609;DHT22;11982;50.810;4.442;2023-02-11T02:36:27;6.10;99.90
23609;DHT22;11982;50.810;4.442;2023-02-11T02:38:43;6.20;99.90
23609;DHT22;11982;50.810;4.442;2023-02-11T02:41:14;6.20;99.90
23609;DHT22;11982;50.810;4.442;2023-02-11T02:43:45;6.20;99.90
23609;DHT22;11982;50.810;4.442;2023-02-11T02:46:13;6.20;99.90
23609;DHT22;11982;50.810;4.442;2023-02-11T02:48:40;6.20;99.90
23609;DHT22;11982;50.810;4.442;2023-02-11T02:56:31;6.20;99.90
23609;DHT22;11982;50.810;4.442;2023-02-11T03:06:54;6.40;99.90
23609;DHT22;11982;50.810;4.442;2023-02-11T03:09:29;6.40;99.90
23609;DHT22;11982;50.810;4.442;2023-02-11T03:11:58;6.40;99.90
23609;DHT22;11982;50.810;4.442;2023-02-11T03:14:26;6.40;99.90
23609;DHT22;11982;50.810;4.442;2023-02-11T03:16:54;6.40;99.90
23609;DHT22;11982;50.810;4.442;2023-02-11T03:19:25;6.30;99.90
23609;DHT22;11982;50.810;4.442;2023-02-11T03:21:52;6.30;99.90
23609;DHT22;11982;50.810;4.442;2023-02-11T03:24:33;6.40;99.90
23609;DHT22;11982;50.810;4.442;2023-02-11T03:29:47;6.30;99.90
23609;DHT22;11982;50.810;4.442;2023-02-11T03:34:59;6.40;99.90
23609;DHT22;11982;50.810;4.442;2023-02-11T03:37:38;6.30;99.90
23609;DHT22;11982;50.810;4.442;2023-02-11T03:40:09;6.30;99.90
23609;DHT22;11982;50.810;4.442;2023-02-11T03:42:53;6.30;99.90
23609;DHT22;11982;50.810;4.442;2023-02-11T03:45:21;6.40;99.90
23609;DHT22;11982;50.810;4.442;2023-02-11T03:47:52;6.40;99.90
23609;DHT22;11982;50.810;4.442;2023-02-11T03:50:20;6.40;99.90
23609;DHT22;11982;50.810;4.442;2023-02-11T03:52:48;6.40;99.90
23609;DHT22;11982;50.810;4.442;2023-02-11T03:55:19;6.50;99.90
23609;DHT22;11982;50.810;4.442;2023-02-11T03:57:46;6.50;99.90
23609;DHT22;11982;50.810;4.442;2023-02-11T04:00:13;6.50;99.90
23609;DHT22;11982;50.810;4.442;2023-02-11T04:02:40;6.50;99.90
23609;DHT22;11982;50.810;4.442;2023-02-11T04:05:08;6.50;99.90
23609;DHT22;11982;50.810;4.442;2023-02-11T04:07:33;6.60;99.90
23609;DHT22;11982;50.810;4.442;2023-02-11T04:09:59;6.50;99.90
23609;DHT22;11982;50.810;4.442;2023-02-11T04:12:25;6.60;99.90
23609;DHT22;11982;50.810;4.442;2023-02-11T04:14:51;6.50;99.90
23609;DHT22;11982;50.810;4.442;2023-02-11T04:17:17;6.60;99.90
23609;DHT22;11982;50.810;4.442;2023-02-11T04:19:42;6.60;99.90
23609;DHT22;11982;50.810;4.442;2023-02-11T04:22:08;6.60;99.90
23609;DHT22;11982;50.810;4.442;2023-02-11T04:24:34;6.60;99.90
23609;DHT22;11982;50.810;4.442;2023-02-11T04:27:00;6.50;99.90
23609;DHT22;11982;50.810;4.442;2023-02-11T04:29:26;6.50;99.90
23609;DHT22;11982;50.810;4.442;2023-02-11T04:31:53;6.60;99.90
23609;DHT22;11982;50.810;4.442;2023-02-11T04:34:19;6.60;99.90
23609;DHT22;11982;50.810;4.442;2023-02-11T04:36:45;6.70;99.90
23609;DHT22;11982;50.810;4.442;2023-02-11T04:39:10;6.70;99.90
23609;DHT22;11982;50.810;4.442;2023-02-11T04:41:36;6.70;99.90
23609;DHT22;11982;50.810;4.442;2023-02-11T04:44:02;6.60;99.90
23609;DHT22;11982;50.810;4.442;2023-02-11T04:46:28;6.60;99.90
23609;DHT22;11982;50.810;4.442;2023-02-11T04:48:53;6.60;99.90
23609;DHT22;11982;50.810;4.442;2023-02-11T04:51:19;6.50;99.90
23609;DHT22;11982;50.810;4.442;2023-02-11T04:53:45;6.60;99.90
23609;DHT22;11982;50.810;4.442;2023-02-11T04:56:10;6.60;99.90
23609;DHT22;11982;50.810;4.442;2023-02-11T04:58:36;6.70;99.90
23609;DHT22;11982;50.810;4.442;2023-02-11T05:01:13;6.70;99.90
23609;DHT22;11982;50.810;4.442;2023-02-11T05:03:40;6.70;99.90
23609;DHT22;11982;50.810;4.442;2023-02-11T05:06:06;6.60;99.90
23609;DHT22;11982;50.810;4.442;2023-02-11T05:08:32;6.70;99.90
23609;DHT22;11982;50.810;4.442;2023-02-11T05:10:58;6.70;99.90
23609;DHT22;11982;50.810;4.442;2023-02-11T05:13:24;6.60;99.90
23609;DHT22;11982;50.810;4.442;2023-02-11T05:15:50;6.50;99.90
23609;DHT22;11982;50.810;4.442;2023-02-11T05:18:15;6.60;99.90
23609;DHT22;11982;50.810;4.442;2023-02-11T05:20:42;6.50;99.90
23609;DHT22;11982;50.810;4.442;2023-02-11T05:23:07;6.50;99.90
23609;DHT22;11982;50.810;4.442;2023-02-11T05:25:33;6.50;99.90
23609;DHT22;11982;50.810;4.442;2023-02-11T05:27:59;6.60;99.90
23609;DHT22;11982;50.810;4.442;2023-02-11T05:30:25;6.50;99.90
23609;DHT22;11982;50.810;4.442;2023-02-11T05:32:50;6.50;99.90
23609;DHT22;11982;50.810;4.442;2023-02-11T05:35:16;6.50;99.90
23609;DHT22;11982;50.810;4.442;2023-02-11T05:37:42;6.50;99.90
23609;DHT22;11982;50.810;4.442;2023-02-11T05:40:08;6.50;99.90
23609;DHT22;11982;50.810;4.442;2023-02-11T05:42:34;6.50;99.90
23609;DHT22;11982;50.810;4.442;2023-02-11T05:44:59;6.50;99.90
23609;DHT22;11982;50.810;4.442;2023-02-11T05:47:25;6.50;99.90
23609;DHT22;11982;50.810;4.442;2023-02-11T05:49:51;6.50;99.90
23609;DHT22;11982;50.810;4.442;2023-02-11T05:52:21;6.50;99.90
23609;DHT22;11982;50.810;4.442;2023-02-11T05:54:47;6.50;99.90
23609;DHT22;11982;50.810;4.442;2023-02-11T05:57:12;6.50;99.90
23609;DHT22;11982;50.810;4.442;2023-02-11T05:59:38;6.50;99.90
23609;DHT22;11982;50.810;4.442;2023-02-11T06:02:04;6.50;99.90
23609;DHT22;11982;50.810;4.442;2023-02-11T06:04:30;6.50;99.90
23609;DHT22;11982;50.810;4.442;2023-02-11T06:06:55;6.50;99.90
23609;DHT22;11982;50.810;4.442;2023-02-11T06:09:21;6.50;99.90
23609;DHT22;11982;50.810;4.442;2023-02-11T06:11:47;6.50;99.90
23609;DHT22;11982;50.810;4.442;2023-02-11T06:14:12;6.50;99.90
23609;DHT22;11982;50.810;4.442;2023-02-11T06:16:39;6.50;99.90
23609;DHT22;11982;50.810;4.442;2023-02-11T06:19:05;6.60;99.90
23609;DHT22;11982;50.810;4.442;2023-02-11T06:21:30;6.60;99.90
23609;DHT22;11982;50.810;4.442;2023-02-11T06:23:56;6.70;99.90
23609;DHT22;11982;50.810;4.442;2023-02-11T06:26:22;6.70;99.90
23609;DHT22;11982;50.810;4.442;2023-02-11T06:28:48;6.70;99.90
23609;DHT22;11982;50.810;4.442;2023-02-11T06:31:14;6.70;99.90
23609;DHT22;11982;50.810;4.442;2023-02-11T06:33:40;6.70;99.90
23609;DHT22;11982;50.810;4.442;2023-02-11T06:36:24;6.60;99.90
23609;DHT22;11982;50.810;4.442;2023-02-11T06:38:50;6.60;99.90
23609;DHT22;11982;50.810;4.442;2023-02-11T06:41:17;6.70;99.90
23609;DHT22;11982;50.810;4.442;2023-02-11T06:43:44;6.70;99.90
23609;DHT22;11982;50.810;4.442;2023-02-11T06:46:11;6.70;99.90
23609;DHT22;11982;50.810;4.442;2023-02-11T06:48:37;6.60;99.90
23609;DHT22;11982;50.810;4.442;2023-02-11T06:51:08;6.70;99.90
23609;DHT22;11982;50.810;4.442;2023-02-11T06:53:37;6.60;99.90
23609;DHT22;11982;50.810;4.442;2023-02-11T06:56:05;6.70;99.90
23609;DHT22;11982;50.810;4.442;2023-02-11T06:58:32;6.70;99.90
23609;DHT22;11982;50.810;4.442;2023-02-11T07:00:58;6.60;99.90
23609;DHT22;11982;50.810;4.442;2023-02-11T07:03:24;6.60;99.90
23609;DHT22;11982;50.810;4.442;2023-02-11T07:05:49;6.60;99.90
23609;DHT22;11982;50.810;4.442;2023-02-11T07:08:15;6.60;99.90
23609;DHT22;11982;50.810;4.442;2023-02-11T07:10:41;6.70;99.90
23609;DHT22;11982;50.810;4.442;2023-02-11T07:13:07;6.70;99.90
23609;DHT22;11982;50.810;4.442;2023-02-11T07:15:32;6.70;99.90
23609;DHT22;11982;50.810;4.442;2023-02-11T07:17:58;6.70;99.90
23609;DHT22;11982;50.810;4.442;2023-02-11T07:20:24;6.70;99.90
23609;DHT22;11982;50.810;4.442;2023-02-11T07:22:50;6.80;99.90
23609;DHT22;11982;50.810;4.442;2023-02-11T07:25:16;6.80;99.90
23609;DHT22;11982;50.810;4.442;2023-02-11T07:27:42;6.80;99.90
23609;DHT22;11982;50.810;4.442;2023-02-11T07:30:08;6.80;99.90
23609;DHT22;11982;50.810;4.442;2023-02-11T07:32:34;6.80;99.90
23609;DHT22;11982;50.810;4.442;2023-02-11T07:34:59;6.90;99.90
23609;DHT22;11982;50.810;4.442;2023-02-11T07:37:25;6.90;99.90
23609;DHT22;11982;50.810;4.442;2023-02-11T07:39:51;6.90;99.90
23609;DHT22;11982;50.810;4.442;2023-02-11T07:42:16;6.90;99.90
23609;DHT22;11982;50.810;4.442;2023-02-11T07:44:42;6.90;99.90
23609;DHT22;11982;50.810;4.442;2023-02-11T07:47:08;6.90;99.90
23609;DHT22;11982;50.810;4.442;2023-02-11T07:49:33;6.90;99.90
23609;DHT22;11982;50.810;4.442;2023-02-11T07:51:59;7.00;99.90
23609;DHT22;11982;50.810;4.442;2023-02-11T07:54:25;7.00;99.90
23609;DHT22;11982;50.810;4.442;2023-02-11T07:56:50;7.10;99.90
23609;DHT22;11982;50.810;4.442;2023-02-11T07:59:16;7.00;99.90
23609;DHT22;11982;50.810;4.442;2023-02-11T08:01:42;7.00;99.90
23609;DHT22;11982;50.810;4.442;2023-02-11T08:04:07;7.00;99.90
23609;DHT22;11982;50.810;4.442;2023-02-11T08:06:34;7.00;99.90
23609;DHT22;11982;50.810;4.442;2023-02-11T08:09:07;7.10;99.90
23609;DHT22;11982;50.810;4.442;2023-02-11T08:11:34;7.20;99.90
23609;DHT22;11982;50.810;4.442;2023-02-11T08:14:00;7.20;99.90
23609;DHT22;11982;50.810;4.442;2023-02-11T08:16:28;7.20;99.90
23609;DHT22;11982;50.810;4.442;2023-02-11T08:18:56;7.10;99.90
23609;DHT22;11982;50.810;4.442;2023-02-11T08:21:23;7.10;99.90
23609;DHT22;11982;50.810;4.442;2023-02-11T08:23:49;7.00;99.90
23609;DHT22;11982;50.810;4.442;2023-02-11T08:26:24;7.00;99.90
23609;DHT22;11982;50.810;4.442;2023-02-11T08:28:52;7.00;99.90
23609;DHT22;11982;50.810;4.442;2023-02-11T08:31:26;7.10;99.90
23609;DHT22;11982;50.810;4.442;2023-02-11T08:33:52;7.00;99.90
23609;DHT22;11982;50.810;4.442;2023-02-11T08:36:21;7.10;99.90
23609;DHT22;11982;50.810;4.442;2023-02-11T08:38:47;7.10;99.90
23609;DHT22;11982;50.810;4.442;2023-02-11T08:41:13;7.10;99.90
23609;DHT22;11982;50.810;4.442;2023-02-11T08:43:39;7.10;99.90
23609;DHT22;11982;50.810;4.442;2023-02-11T08:46:07;7.10;99.90
23609;DHT22;11982;50.810;4.442;2023-02-11T08:48:33;7.20;99.90
23609;DHT22;11982;50.810;4.442;2023-02-11T08:50:59;7.30;99.90
23609;DHT22;11982;50.810;4.442;2023-02-11T08:53:25;7.30;99.90
23609;DHT22;11982;50.810;4.442;2023-02-11T08:55:52;7.40;99.90
23609;DHT22;11982;50.810;4.442;2023-02-11T08:58:18;7.30;99.90
23609;DHT22;11982;50.810;4.442;2023-02-11T09:00:45;7.30;99.90
23609;DHT22;11982;50.810;4.442;2023-02-11T09:03:12;7.30;99.90
23609;DHT22;11982;50.810;4.442;2023-02-11T09:05:44;7.30;99.90
23609;DHT22;11982;50.810;4.442;2023-02-11T09:08:11;7.20;99.90
23609;DHT22;11982;50.810;4.442;2023-02-11T09:10:37;7.20;99.90
23609;DHT22;11982;50.810;4.442;2023-02-11T09:13:03;7.20;99.90
23609;DHT22;11982;50.810;4.442;2023-02-11T09:15:29;7.20;99.90
23609;DHT22;11982;50.810;4.442;2023-02-11T09:17:55;7.30;99.90
23609;DHT22;11982;50.810;4.442;2023-02-11T09:20:21;7.40;99.90
23609;DHT22;11982;50.810;4.442;2023-02-11T09:22:47;7.40;99.90
23609;DHT22;11982;50.810;4.442;2023-02-11T09:25:12;7.30;99.90
23609;DHT22;11982;50.810;4.442;2023-02-11T09:27:38;7.30;99.90
23609;DHT22;11982;50.810;4.442;2023-02-11T09:30:04;7.30;99.90
23609;DHT22;11982;50.810;4.442;2023-02-11T09:32:30;7.30;99.90
23609;DHT22;11982;50.810;4.442;2023-02-11T09:34:56;7.40;99.90
23609;DHT22;11982;50.810;4.442;2023-02-11T09:37:21;7.30;99.90
23609;DHT22;11982;50.810;4.442;2023-02-11T09:39:47;7.40;99.90
23609;DHT22;11982;50.810;4.442;2023-02-11T09:44:59;7.40;99.90
23609;DHT22;11982;50.810;4.442;2023-02-11T09:47:35;7.50;99.90
23609;DHT22;11982;50.810;4.442;2023-02-11T09:50:13;7.50;99.90
23609;DHT22;11982;50.810;4.442;2023-02-11T09:52:57;7.60;99.90
23609;DHT22;11982;50.810;4.442;2023-02-11T09:55:27;7.60;99.90
23609;DHT22;11982;50.810;4.442;2023-02-11T09:57:54;7.60;99.90
23609;DHT22;11982;50.810;4.442;2023-02-11T10:15:11;7.80;99.90
23609;DHT22;11982;50.810;4.442;2023-02-11T10:22:46;7.90;99.90
23609;DHT22;11982;50.810;4.442;2023-02-11T10:25:26;7.90;99.90
23609;DHT22;11982;50.810;4.442;2023-02-11T10:27:55;7.80;99.90
23609;DHT22;11982;50.810;4.442;2023-02-11T10:35:20;8.20;99.90
23609;DHT22;11982;50.810;4.442;2023-02-11T10:37:47;8.10;99.90
23609;DHT22;11982;50.810;4.442;2023-02-11T10:40:15;8.10;99.90
23609;DHT22;11982;50.810;4.442;2023-02-11T10:42:45;8.10;99.90
23609;DHT22;11982;50.810;4.442;2023-02-11T10:47:48;8.10;99.90
23609;DHT22;11982;50.810;4.442;2023-02-11T10:50:23;8.10;99.90
23609;DHT22;11982;50.810;4.442;2023-02-11T10:52:49;8.10;99.90
23609;DHT22;11982;50.810;4.442;2023-02-11T10:55:24;8.10;99.90
23609;DHT22;11982;50.810;4.442;2023-02-11T10:58:00;8.00;99.90
23609;DHT22;11982;50.810;4.442;2023-02-11T11:00:34;8.00;99.90
23609;DHT22;11982;50.810;4.442;2023-02-11T11:03:18;8.00;99.90
23609;DHT22;11982;50.810;4.442;2023-02-11T11:06:05;8.00;99.90
23609;DHT22;11982;50.810;4.442;2023-02-11T11:11:05;8.10;99.90
23609;DHT22;11982;50.810;4.442;2023-02-11T11:13:36;8.10;99.90
23609;DHT22;11982;50.810;4.442;2023-02-11T11:18:37;8.20;99.90
23609;DHT22;11982;50.810;4.442;2023-02-11T11:21:05;8.30;99.90
23609;DHT22;11982;50.810;4.442;2023-02-11T11:23:34;8.40;99.90
23609;DHT22;11982;50.810;4.442;2023-02-11T11:26:10;8.40;99.90
23609;DHT22;11982;50.810;4.442;2023-02-11T11:28:49;8.50;99.90
23609;DHT22;11982;50.810;4.442;2023-02-11T11:34:30;8.30;99.90
23609;DHT22;11982;50.810;4.442;2023-02-11T11:36:59;8.30;99.90
23609;DHT22;11982;50.810;4.442;2023-02-11T11:39:30;8.30;99.90
23609;DHT22;11982;50.810;4.442;2023-02-11T11:41:58;8.30;99.90
23609;DHT22;11982;50.810;4.442;2023-02-11T11:47:06;8.30;99.90
23609;DHT22;11982;50.810;4.442;2023-02-11T11:57:44;8.50;99.90
23609;DHT22;11982;50.810;4.442;2023-02-11T12:00:15;8.50;99.90
23609;DHT22;11982;50.810;4.442;2023-02-11T12:08:44;8.50;99.90
23609;DHT22;11982;50.810;4.442;2023-02-11T12:17:02;8.60;99.90
23609;DHT22;11982;50.810;4.442;2023-02-11T12:22:25;8.60;99.90
23609;DHT22;11982;50.810;4.442;2023-02-11T12:27:43;8.80;99.90
23609;DHT22;11982;50.810;4.442;2023-02-11T12:43:34;8.80;99.90
23609;DHT22;11982;50.810;4.442;2023-02-11T12:48:59;8.90;99.90
23609;DHT22;11982;50.810;4.442;2023-02-11T12:57:30;8.90;99.90
23609;DHT22;11982;50.810;4.442;2023-02-11T13:00:19;9.00;99.90
23609;DHT22;11982;50.810;4.442;2023-02-11T13:05:24;8.90;99.90
23609;DHT22;11982;50.810;4.442;2023-02-11T13:07:52;8.80;99.90
23609;DHT22;11982;50.810;4.442;2023-02-11T13:10:30;8.80;99.90
23609;DHT22;11982;50.810;4.442;2023-02-11T13:12:59;8.90;99.90
23609;DHT22;11982;50.810;4.442;2023-02-11T13:16:00;9.00;99.90
23609;DHT22;11982;50.810;4.442;2023-02-11T13:21:22;9.00;99.90
23609;DHT22;11982;50.810;4.442;2023-02-11T13:24:01;9.00;99.90
23609;DHT22;11982;50.810;4.442;2023-02-11T13:32:14;8.90;99.90
23609;DHT22;11982;50.810;4.442;2023-02-11T13:40:02;8.80;99.90
23609;DHT22;11982;50.810;4.442;2023-02-11T13:42:29;8.90;99.90
23609;DHT22;11982;50.810;4.442;2023-02-11T13:44:56;9.00;99.90
23609;DHT22;11982;50.810;4.442;2023-02-11T13:47:31;9.00;99.90
23609;DHT22;11982;50.810;4.442;2023-02-11T13:49:59;8.90;99.90
23609;DHT22;11982;50.810;4.442;2023-02-11T13:52:33;8.90;99.90
23609;DHT22;11982;50.810;4.442;2023-02-11T13:57:37;9.00;99.90
23609;DHT22;11982;50.810;4.442;2023-02-11T14:19:33;9.10;99.90
23609;DHT22;11982;50.810;4.442;2023-02-11T14:22:26;9.00;99.90
23609;DHT22;11982;50.810;4.442;2023-02-11T14:24:58;9.00;99.90
23609;DHT22;11982;50.810;4.442;2023-02-11T14:35:28;9.10;99.90
23609;DHT22;11982;50.810;4.442;2023-02-11T14:43:25;9.10;99.90
23609;DHT22;11982;50.810;4.442;2023-02-11T14:45:56;9.10;99.90
23609;DHT22;11982;50.810;4.442;2023-02-11T14:48:31;9.00;99.90
23609;DHT22;11982;50.810;4.442;2023-02-11T14:51:07;9.00;99.90
23609;DHT22;11982;50.810;4.442;2023-02-11T14:53:36;9.10;99.90
23609;DHT22;11982;50.810;4.442;2023-02-11T14:56:02;9.20;99.90
23609;DHT22;11982;50.810;4.442;2023-02-11T14:58:45;9.10;99.90
23609;DHT22;11982;50.810;4.442;2023-02-11T15:01:33;9.10;99.90
23609;DHT22;11982;50.810;4.442;2023-02-11T15:04:01;9.00;99.90
23609;DHT22;11982;50.810;4.442;2023-02-11T15:06:31;9.00;99.90
23609;DHT22;11982;50.810;4.442;2023-02-11T15:11:44;9.00;99.90
23609;DHT22;11982;50.810;4.442;2023-02-11T15:14:32;9.10;99.90
23609;DHT22;11982;50.810;4.442;2023-02-11T15:17:01;9.10;99.90
23609;DHT22;11982;50.810;4.442;2023-02-11T15:19:38;9.10;99.90
23609;DHT22;11982;50.810;4.442;2023-02-11T15:22:17;9.00;99.90
23609;DHT22;11982;50.810;4.442;2023-02-11T15:24:44;9.00;99.90
23609;DHT22;11982;50.810;4.442;2023-02-11T15:27:12;9.10;99.90
23609;DHT22;11982;50.810;4.442;2023-02-11T15:29:45;9.10;99.90
23609;DHT22;11982;50.810;4.442;2023-02-11T15:34:47;9.10;99.90
23609;DHT22;11982;50.810;4.442;2023-02-11T15:37:19;9.20;99.90
23609;DHT22;11982;50.810;4.442;2023-02-11T15:39:47;9.20;99.90
23609;DHT22;11982;50.810;4.442;2023-02-11T15:42:29;9.10;99.90
23609;DHT22;11982;50.810;4.442;2023-02-11T15:45:22;9.20;99.90
23609;DHT22;11982;50.810;4.442;2023-02-11T15:47:56;9.20;99.90
23609;DHT22;11982;50.810;4.442;2023-02-11T15:50:27;9.20;99.90
23609;DHT22;11982;50.810;4.442;2023-02-11T15:52:56;9.20;99.90
23609;DHT22;11982;50.810;4.442;2023-02-11T15:55:23;9.30;99.90
23609;DHT22;11982;50.810;4.442;2023-02-11T15:58:00;9.30;99.90
23609;DHT22;11982;50.810;4.442;2023-02-11T16:00:33;9.30;99.90
23609;DHT22;11982;50.810;4.442;2023-02-11T16:02:59;9.30;99.90
23609;DHT22;11982;50.810;4.442;2023-02-11T16:05:29;9.30;99.90
23609;DHT22;11982;50.810;4.442;2023-02-11T16:07:55;9.30;99.90
23609;DHT22;11982;50.810;4.442;2023-02-11T16:10:31;9.40;99.90
23609;DHT22;11982;50.810;4.442;2023-02-11T16:13:01;9.50;99.90
23609;DHT22;11982;50.810;4.442;2023-02-11T16:18:04;9.50;99.90
23609;DHT22;11982;50.810;4.442;2023-02-11T16:20:37;9.50;99.90
23609;DHT22;11982;50.810;4.442;2023-02-11T16:23:03;9.50;99.90
23609;DHT22;11982;50.810;4.442;2023-02-11T16:25:31;9.30;99.90
23609;DHT22;11982;50.810;4.442;2023-02-11T16:27:59;9.30;99.90
23609;DHT22;11982;50.810;4.442;2023-02-11T16:30:34;9.30;99.90
23609;DHT22;11982;50.810;4.442;2023-02-11T16:33:04;9.30;99.90
23609;DHT22;11982;50.810;4.442;2023-02-11T16:35:31;9.30;99.90
23609;DHT22;11982;50.810;4.442;2023-02-11T16:37:56;9.20;99.90
23609;DHT22;11982;50.810;4.442;2023-02-11T16:40:22;9.30;99.90
23609;DHT22;11982;50.810;4.442;2023-02-11T16:42:49;9.30;99.90
23609;DHT22;11982;50.810;4.442;2023-02-11T16:45:16;9.20;99.90
23609;DHT22;11982;50.810;4.442;2023-02-11T16:47:42;9.00;99.90
23609;DHT22;11982;50.810;4.442;2023-02-11T16:50:14;9.00;99.90
23609;DHT22;11982;50.810;4.442;2023-02-11T16:52:43;9.10;99.90
23609;DHT22;11982;50.810;4.442;2023-02-11T16:55:11;9.10;99.90
23609;DHT22;11982;50.810;4.442;2023-02-11T16:57:37;9.20;99.90
23609;DHT22;11982;50.810;4.442;2023-02-11T17:00:05;9.20;99.90
23609;DHT22;11982;50.810;4.442;2023-02-11T17:02:33;9.10;99.90
23609;DHT22;11982;50.810;4.442;2023-02-11T17:05:01;9.20;99.90
23609;DHT22;11982;50.810;4.442;2023-02-11T17:07:28;9.20;99.90
23609;DHT22;11982;50.810;4.442;2023-02-11T17:09:54;9.10;99.90
23609;DHT22;11982;50.810;4.442;2023-02-11T17:12:20;9.00;99.90
23609;DHT22;11982;50.810;4.442;2023-02-11T17:14:46;9.10;99.90
23609;DHT22;11982;50.810;4.442;2023-02-11T17:17:12;9.30;99.90
23609;DHT22;11982;50.810;4.442;2023-02-11T17:19:38;9.40;99.90
23609;DHT22;11982;50.810;4.442;2023-02-11T17:22:04;9.50;99.90
23609;DHT22;11982;50.810;4.442;2023-02-11T17:24:30;9.40;99.90
23609;DHT22;11982;50.810;4.442;2023-02-11T17:26:56;9.30;99.90
23609;DHT22;11982;50.810;4.442;2023-02-11T17:29:23;9.30;99.90
23609;DHT22;11982;50.810;4.442;2023-02-11T17:31:50;9.30;99.90
23609;DHT22;11982;50.810;4.442;2023-02-11T17:34:17;9.40;99.90
23609;DHT22;11982;50.810;4.442;2023-02-11T17:36:43;9.20;99.90
23609;DHT22;11982;50.810;4.442;2023-02-11T17:39:09;9.10;99.90
23609;DHT22;11982;50.810;4.442;2023-02-11T17:41:36;9.20;99.90
23609;DHT22;11982;50.810;4.442;2023-02-11T17:44:03;9.20;99.90
23609;DHT22;11982;50.810;4.442;2023-02-11T17:46:29;9.20;99.90
23609;DHT22;11982;50.810;4.442;2023-02-11T17:48:57;9.40;99.90
23609;DHT22;11982;50.810;4.442;2023-02-11T17:51:26;9.40;99.90
23609;DHT22;11982;50.810;4.442;2023-02-11T17:53:53;9.40;99.90
23609;DHT22;11982;50.810;4.442;2023-02-11T17:56:21;9.30;99.90
23609;DHT22;11982;50.810;4.442;2023-02-11T17:58:47;9.30;99.90
23609;DHT22;11982;50.810;4.442;2023-02-11T18:01:13;9.40;99.90
23609;DHT22;11982;50.810;4.442;2023-02-11T18:03:38;9.50;99.90
23609;DHT22;11982;50.810;4.442;2023-02-11T18:06:05;9.50;99.90
23609;DHT22;11982;50.810;4.442;2023-02-11T18:08:32;9.50;99.90
23609;DHT22;11982;50.810;4.442;2023-02-11T18:10:58;9.70;99.90
23609;DHT22;11982;50.810;4.442;2023-02-11T18:13:24;9.80;99.90
23609;DHT22;11982;50.810;4.442;2023-02-11T18:15:50;9.80;99.90
23609;DHT22;11982;50.810;4.442;2023-02-11T18:18:15;9.70;99.90
23609;DHT22;11982;50.810;4.442;2023-02-11T18:20:42;9.60;99.90
23609;DHT22;11982;50.810;4.442;2023-02-11T18:23:09;9.60;99.90
23609;DHT22;11982;50.810;4.442;2023-02-11T18:25:35;9.80;99.90
23609;DHT22;11982;50.810;4.442;2023-02-11T18:28:01;9.90;99.90
23609;DHT22;11982;50.810;4.442;2023-02-11T18:30:27;9.70;99.90
23609;DHT22;11982;50.810;4.442;2023-02-11T18:32:54;9.90;99.90
23609;DHT22;11982;50.810;4.442;2023-02-11T18:35:21;10.00;99.90
23609;DHT22;11982;50.810;4.442;2023-02-11T18:37:47;9.90;99.90
23609;DHT22;11982;50.810;4.442;2023-02-11T18:40:14;10.10;99.90
23609;DHT22;11982;50.810;4.442;2023-02-11T18:42:40;10.10;99.90
23609;DHT22;11982;50.810;4.442;2023-02-11T18:45:11;10.20;99.90
23609;DHT22;11982;50.810;4.442;2023-02-11T18:47:37;10.20;99.90
23609;DHT22;11982;50.810;4.442;2023-02-11T18:50:05;10.10;99.90
23609;DHT22;11982;50.810;4.442;2023-02-11T18:52:33;10.00;99.90
23609;DHT22;11982;50.810;4.442;2023-02-11T18:54:59;9.90;99.90
23609;DHT22;11982;50.810;4.442;2023-02-11T18:57:24;9.80;99.90